Time;durP1;ratioP1;P1;durP2;ratioP2;P2;SDS_P1;SDS_P2;PMS_P1;PMS_P2;Temp;Humidity;BMP_temperature;BMP_pressure;BME280_temperature;BME280_humidity;BME280_pressure;Samples;Min_cycle;Max_cycle;Signal;HPM_P1;HPM_P2
2023/04/21 00:01:12;;;;;;;27.63;18.98;;;10.40;41.40;;;;;;4974114;28;20053;-81
2023/04/21 00:03:38;;;;;;;31.02;21.60;;;10.30;41.70;;;;;;4975758;28;20042;-79
2023/04/21 00:06:11;;;;;;;30.10;21.90;;;10.30;42.00;;;;;;4975763;28;20437;-78
2023/04/21 00:08:39;;;;;;;17.50;9.65;;;10.20;42.10;;;;;;4976135;28;20033;-80
2023/04/21 00:11:08;;;;;;;24.35;16.25;;;10.20;42.40;;;;;;4972877;28;20062;-81
2023/04/21 00:13:35;;;;;;;25.17;13.68;;;10.20;42.40;;;;;;4971318;28;20085;-82
2023/04/21 00:16:01;;;;;;;22.90;14.97;;;10.10;42.40;;;;;;4972503;28;20027;-82
2023/04/21 00:18:27;;;;;;;24.83;14.35;;;10.00;42.50;;;;;;4982300;28;20026;-83
2023/04/21 00:20:54;;;;;;;19.80;15.10;;;10.00;42.70;;;;;;4977952;28;20411;-82
2023/04/21 00:23:19;;;;;;;24.65;17.60;;;10.00;42.70;;;;;;4983184;28;20023;-82
2023/04/21 00:25:45;;;;;;;22.10;14.38;;;9.90;42.70;;;;;;4974385;28;20018;-83
2023/04/21 00:28:11;;;;;;;20.25;11.20;;;9.90;42.90;;;;;;4974930;28;20027;-84
2023/04/21 00:30:37;;;;;;;19.23;13.00;;;9.90;43.00;;;;;;4980065;28;20033;-82
2023/04/21 00:33:03;;;;;;;20.48;11.18;;;9.90;43.00;;;;;;4978489;28;20023;-81
2023/04/21 00:35:29;;;;;;;15.25;8.13;;;9.80;43.00;;;;;;4974763;28;20026;-81
2023/04/21 00:37:55;;;;;;;18.60;11.07;;;9.80;43.20;;;;;;4979713;28;20166;-83
2023/04/21 00:40:21;;;;;;;15.10;8.80;;;9.80;43.20;;;;;;4987369;28;20090;-81
2023/04/21 00:42:47;;;;;;;13.65;8.95;;;9.70;43.30;;;;;;4993509;28;20038;-81
2023/04/21 00:45:16;;;;;;;17.00;8.95;;;9.70;43.50;;;;;;4981197;28;20018;-81
2023/04/21 00:47:42;;;;;;;17.90;10.30;;;9.70;43.40;;;;;;4982150;28;20058;-81
2023/04/21 00:50:09;;;;;;;14.13;9.35;;;9.70;43.40;;;;;;4978924;28;20030;-80
2023/04/21 00:52:36;;;;;;;18.10;9.00;;;9.70;43.50;;;;;;4979059;28;20089;-82
2023/04/21 00:55:03;;;;;;;13.57;8.93;;;9.60;43.40;;;;;;4975584;28;20038;-81
2023/04/21 00:57:31;;;;;;;15.45;9.45;;;9.60;43.50;;;;;;4975932;28;20638;-82
2023/04/21 00:59:57;;;;;;;18.05;10.32;;;9.60;43.60;;;;;;4964600;28;20054;-82
2023/04/21 01:02:23;;;;;;;14.77;9.70;;;9.50;43.80;;;;;;4979246;28;20034;-81
2023/04/21 01:04:49;;;;;;;16.27;9.90;;;9.50;43.90;;;;;;4989321;28;20051;-82
2023/04/21 01:07:15;;;;;;;10.95;7.55;;;9.40;44.00;;;;;;4989396;28;20046;-81
2023/04/21 01:09:41;;;;;;;12.88;8.20;;;9.40;44.00;;;;;;4989628;28;20030;-82
2023/04/21 01:12:09;;;;;;;13.27;8.55;;;9.40;44.00;;;;;;4984901;28;20026;-83
2023/04/21 01:14:37;;;;;;;15.05;8.95;;;9.30;44.10;;;;;;4965558;28;20051;-81
2023/04/21 01:17:04;;;;;;;13.50;7.13;;;9.30;44.20;;;;;;4969603;28;20027;-82
2023/04/21 01:19:38;;;;;;;10.43;6.68;;;9.30;44.20;;;;;;4958252;28;20034;-82
2023/04/21 01:22:05;;;;;;;10.27;5.60;;;9.30;44.30;;;;;;4960217;28;20074;-81
2023/04/21 01:24:45;;;;;;;11.38;6.55;;;9.20;44.80;;;;;;4979795;28;20125;-82
2023/04/21 01:27:12;;;;;;;12.00;6.13;;;9.20;44.90;;;;;;4982815;28;20031;-81
2023/04/21 01:29:39;;;;;;;;;;;9.20;44.10;;;;;;4981096;28;20042;-81
2023/04/21 01:32:11;;;;;;;11.43;6.57;;;9.20;44.00;;;;;;4978543;28;19906;-84
2023/04/21 01:34:38;;;;;;;8.85;5.88;;;9.10;44.30;;;;;;4978541;28;20026;-83
2023/04/21 01:37:08;;;;;;;12.50;6.10;;;9.10;44.40;;;;;;4977866;28;20025;-83
2023/04/21 01:39:39;;;;;;;12.18;5.65;;;9.10;44.50;;;;;;4963086;28;20043;-83
2023/04/21 01:42:06;;;;;;;10.05;6.05;;;9.00;44.50;;;;;;4960291;28;20041;-81
2023/04/21 01:44:32;;;;;;;11.57;6.13;;;9.00;44.50;;;;;;4977023;28;20511;-83
2023/04/21 01:46:58;;;;;;;14.45;8.32;;;9.00;44.60;;;;;;4977554;28;20023;-82
2023/04/21 01:49:24;;;;;;;10.27;5.68;;;9.00;44.80;;;;;;4980635;28;20045;-82
2023/04/21 01:51:49;;;;;;;8.57;5.72;;;9.00;44.60;;;;;;4990417;28;20119;-85
2023/04/21 01:54:15;;;;;;;11.07;5.15;;;9.10;44.50;;;;;;4976775;28;20027;-84
2023/04/21 01:56:41;;;;;;;8.63;5.97;;;9.00;44.40;;;;;;4977190;28;20027;-83
2023/04/21 01:59:07;;;;;;;13.32;6.38;;;9.10;44.30;;;;;;4960410;28;20029;-83
2023/04/21 02:01:34;;;;;;;8.95;5.55;;;9.00;44.30;;;;;;4959381;28;20125;-82
2023/04/21 02:04:01;;;;;;;13.63;6.15;;;9.00;44.40;;;;;;4976385;28;20361;-83
2023/04/21 02:06:27;;;;;;;11.75;5.60;;;9.00;44.50;;;;;;4980076;28;20395;-82
2023/04/21 02:08:53;;;;;;;9.95;5.43;;;9.00;44.50;;;;;;4975486;28;20027;-82
2023/04/21 02:11:19;;;;;;;10.98;6.40;;;9.00;44.60;;;;;;4987035;28;20038;-83
2023/04/21 02:13:45;;;;;;;10.35;5.32;;;8.90;44.60;;;;;;4976405;28;20019;-82
2023/04/21 02:16:11;;;;;;;8.88;5.03;;;8.90;44.70;;;;;;4962999;28;20134;-82
2023/04/21 02:18:38;;;;;;;7.60;5.00;;;8.90;44.70;;;;;;4977332;28;20058;-83
2023/04/21 02:21:06;;;;;;;10.60;5.35;;;9.00;44.60;;;;;;4990767;28;20013;-81
2023/04/21 02:23:32;;;;;;;10.00;5.00;;;9.00;44.60;;;;;;4983996;28;20035;-82
2023/04/21 02:25:58;;;;;;;9.15;6.07;;;9.00;44.60;;;;;;4978238;28;20018;-83
2023/04/21 02:28:23;;;;;;;12.13;6.38;;;9.00;44.60;;;;;;4992739;28;20115;-82
2023/04/21 02:30:49;;;;;;;13.05;6.13;;;9.00;44.70;;;;;;4980613;28;20029;-84
2023/04/21 02:33:15;;;;;;;9.68;4.22;;;8.90;44.70;;;;;;4978128;28;20105;-84
2023/04/21 02:35:41;;;;;;;8.93;5.30;;;8.90;44.90;;;;;;4983133;28;20023;-82
2023/04/21 02:38:07;;;;;;;15.15;5.00;;;8.90;44.90;;;;;;4976159;28;20059;-82
2023/04/21 02:40:33;;;;;;;9.43;5.00;;;8.90;44.90;;;;;;4976648;28;20025;-83
2023/04/21 02:43:00;;;;;;;8.52;4.75;;;8.90;44.90;;;;;;4990067;28;20039;-82
2023/04/21 02:45:26;;;;;;;12.93;5.70;;;9.00;44.80;;;;;;4968731;28;20023;-82
2023/04/21 02:47:52;;;;;;;7.65;4.78;;;9.00;44.90;;;;;;4971396;28;20034;-83
2023/04/21 02:50:17;;;;;;;5.88;4.53;;;9.00;44.70;;;;;;4995623;28;20061;-82
2023/04/21 02:52:43;;;;;;;7.93;4.78;;;9.00;44.50;;;;;;4997765;28;20038;-82
2023/04/21 02:55:12;;;;;;;12.10;5.35;;;9.10;44.40;;;;;;4981458;28;20015;-83
2023/04/21 02:57:38;;;;;;;8.52;5.03;;;9.20;44.40;;;;;;4971820;28;20109;-82
2023/04/21 03:00:06;;;;;;;14.07;5.57;;;9.20;44.40;;;;;;4955363;28;20113;-81
2023/04/21 03:02:32;;;;;;;10.30;4.82;;;9.30;44.30;;;;;;4985664;28;20037;-82
2023/04/21 03:04:57;;;;;;;13.95;5.82;;;9.30;44.40;;;;;;4994632;28;20055;-82
2023/04/21 03:07:23;;;;;;;10.10;6.10;;;9.40;44.20;;;;;;4975958;28;20392;-82
2023/04/21 03:09:49;;;;;;;9.25;5.05;;;9.40;44.00;;;;;;4961015;28;20023;-83
2023/04/21 03:12:15;;;;;;;8.00;5.13;;;9.50;44.00;;;;;;4980099;28;20429;-84
2023/04/21 03:14:41;;;;;;;11.02;5.20;;;9.60;43.90;;;;;;5000481;28;20023;-81
2023/04/21 03:17:07;;;;;;;9.65;6.15;;;9.60;44.50;;;;;;4991826;28;20087;-84
2023/04/21 03:19:33;;;;;;;12.15;6.10;;;9.60;43.90;;;;;;4981473;28;20023;-82
2023/04/21 03:21:59;;;;;;;9.77;5.28;;;9.70;43.90;;;;;;4979927;28;20042;-83
2023/04/21 03:24:27;;;;;;;8.68;5.10;;;9.70;43.80;;;;;;4996966;28;20656;-83
2023/04/21 03:26:54;;;;;;;7.22;5.60;;;9.70;43.70;;;;;;4997521;28;20023;-83
2023/04/21 03:29:20;;;;;;;7.80;4.85;;;9.80;43.50;;;;;;5008089;28;20050;-83
2023/04/21 03:31:46;;;;;;;9.25;5.00;;;9.90;43.50;;;;;;4977156;28;20019;-84
2023/04/21 03:34:11;;;;;;;8.63;4.68;;;9.90;43.30;;;;;;4981082;28;20035;-82
2023/04/21 03:36:37;;;;;;;9.18;4.95;;;10.00;43.20;;;;;;4985819;28;20552;-83
2023/04/21 03:39:03;;;;;;;8.18;5.07;;;10.00;43.10;;;;;;4985233;28;20019;-83
2023/04/21 03:41:29;;;;;;;9.70;4.93;;;10.00;43.20;;;;;;4946465;28;20027;-84
2023/04/21 03:43:55;;;;;;;16.20;5.28;;;10.10;43.00;;;;;;4959762;28;20054;-83
2023/04/21 03:46:21;;;;;;;11.00;5.30;;;10.10;43.00;;;;;;4958933;28;20045;-82
2023/04/21 03:48:47;;;;;;;10.20;5.90;;;10.20;43.20;;;;;;4975329;28;20027;-82
2023/04/21 03:51:13;;;;;;;15.00;8.60;;;10.30;43.30;;;;;;4979456;28;20026;-82
2023/04/21 03:53:40;;;;;;;13.60;7.30;;;10.30;43.60;;;;;;4980700;28;20042;-83
2023/04/21 03:56:06;;;;;;;13.82;8.15;;;10.30;43.70;;;;;;4977119;28;20030;-83
2023/04/21 03:58:32;;;;;;;9.73;6.78;;;10.30;43.70;;;;;;4975153;28;20045;-83
2023/04/21 04:00:58;;;;;;;14.63;7.22;;;10.20;43.80;;;;;;4963597;28;20035;-81
2023/04/21 04:03:23;;;;;;;10.32;6.10;;;10.30;43.60;;;;;;4981431;28;20066;-81
2023/04/21 04:05:49;;;;;;;9.60;5.85;;;10.30;43.50;;;;;;4978684;28;20105;-82
2023/04/21 04:08:15;;;;;;;10.68;5.50;;;10.50;43.20;;;;;;4965637;28;20058;-81
2023/04/21 04:10:41;;;;;;;13.85;7.03;;;10.50;43.70;;;;;;4981225;28;20483;-82
2023/04/21 04:13:07;;;;;;;14.45;5.60;;;10.60;43.20;;;;;;4958519;28;20136;-82
2023/04/21 04:15:33;;;;;;;11.55;5.35;;;10.60;43.00;;;;;;4976690;28;20022;-83
2023/04/21 04:17:59;;;;;;;14.00;6.28;;;10.60;42.80;;;;;;4958596;28;20022;-82
2023/04/21 04:20:25;;;;;;;16.52;6.07;;;10.70;43.00;;;;;;4974068;28;20026;-83
2023/04/21 04:22:51;;;;;;;11.75;5.88;;;10.80;42.90;;;;;;4963958;28;20039;-81
2023/04/21 04:25:17;;;;;;;12.35;6.03;;;10.80;42.60;;;;;;4955765;28;20078;-80
2023/04/21 04:27:44;;;;;;;9.43;5.47;;;10.90;42.60;;;;;;4985395;28;20472;-82
2023/04/21 04:30:12;;;;;;;13.73;6.78;;;11.00;42.60;;;;;;4975144;28;20025;-83
2023/04/21 04:32:38;;;;;;;15.20;5.43;;;10.90;43.00;;;;;;4975375;28;20030;-84
2023/04/21 04:35:08;;;;;;;12.65;6.00;;;11.00;42.80;;;;;;4971629;28;20027;-81
2023/04/21 04:37:36;;;;;;;7.63;4.22;;;11.30;43.00;;;;;;4969077;28;20027;-83
2023/04/21 04:40:06;;;;;;;11.60;5.72;;;11.80;41.40;;;;;;4974801;28;20027;-84
2023/04/21 04:42:33;;;;;;;8.75;5.32;;;12.40;41.50;;;;;;4975246;28;20073;-83
2023/04/21 04:45:00;;;;;;;12.85;5.65;;;13.00;40.00;;;;;;4974968;28;20021;-84
2023/04/21 04:47:26;;;;;;;11.80;5.35;;;13.60;39.00;;;;;;4987846;28;20023;-83
2023/04/21 04:49:52;;;;;;;10.43;4.63;;;14.60;37.80;;;;;;4992216;28;20022;-83
2023/04/21 04:52:18;;;;;;;11.00;5.35;;;14.90;37.70;;;;;;4976014;28;20062;-84
2023/04/21 04:54:44;;;;;;;16.75;6.00;;;15.50;36.60;;;;;;4974786;28;20023;-83
2023/04/21 04:57:10;;;;;;;9.63;4.78;;;15.90;35.60;;;;;;4980488;28;20191;-83
2023/04/21 04:59:36;;;;;;;8.38;5.40;;;16.30;35.30;;;;;;4983801;28;20117;-83
2023/04/21 05:02:02;;;;;;;11.75;5.68;;;16.30;34.70;;;;;;4987769;28;20488;-83
2023/04/21 05:04:29;;;;;;;13.07;6.75;;;16.60;34.70;;;;;;4968999;28;20408;-82
2023/04/21 05:06:54;;;;;;;14.77;5.75;;;17.00;34.60;;;;;;4975446;28;20182;-84
2023/04/21 05:09:20;;;;;;;7.22;4.82;;;17.50;33.80;;;;;;4983071;28;20487;-82
2023/04/21 05:11:46;;;;;;;10.13;5.78;;;18.00;33.30;;;;;;4988876;28;20033;-84
2023/04/21 05:14:12;;;;;;;12.15;5.78;;;18.30;32.50;;;;;;4979524;28;20472;-83
2023/04/21 05:16:38;;;;;;;15.52;6.20;;;18.30;32.30;;;;;;4978571;28;20039;-84
2023/04/21 05:19:04;;;;;;;10.00;4.75;;;;;;;;;;4962978;28;20034;-85
2023/04/21 05:21:32;;;;;;;15.63;5.45;;;;;;;;;;4987167;28;20042;-85
2023/04/21 05:23:58;;;;;;;15.57;7.05;;;19.40;30.80;;;;;;4965584;28;20031;-84
2023/04/21 05:26:26;;;;;;;15.93;5.85;;;19.60;31.20;;;;;;4957217;28;20033;-85
2023/04/21 05:28:52;;;;;;;;;;;19.60;30.90;;;;;;4961680;28;20042;-81
2023/04/21 05:31:18;;;;;;;10.40;4.85;;;19.80;30.70;;;;;;4987236;28;19969;-83
2023/04/21 05:33:44;;;;;;;11.30;4.82;;;20.00;30.40;;;;;;4970757;28;20023;-82
2023/04/21 05:36:10;;;;;;;13.10;4.70;;;20.20;30.10;;;;;;4977101;28;20037;-81
2023/04/21 05:38:37;;;;;;;8.98;4.85;;;20.90;29.80;;;;;;4967972;28;20101;-84
2023/04/21 05:41:03;;;;;;;15.98;5.78;;;22.00;29.30;;;;;;4982685;28;20042;-82
2023/04/21 05:43:32;;;;;;;18.02;4.07;;;22.90;28.80;;;;;;4972606;28;20122;-83
2023/04/21 05:45:58;;;;;;;13.73;4.80;;;23.80;27.70;;;;;;4968907;28;20031;-84
2023/04/21 05:48:24;;;;;;;8.70;3.90;;;24.20;27.50;;;;;;4978367;28;20027;-84
2023/04/21 05:50:50;;;;;;;11.20;4.20;;;23.60;27.40;;;;;;4970879;28;20038;-83
2023/04/21 05:53:16;;;;;;;10.20;4.45;;;23.50;27.60;;;;;;4969554;28;20027;-83
2023/04/21 05:55:42;;;;;;;11.27;4.80;;;24.40;27.50;;;;;;4991120;28;20069;-84
2023/04/21 05:58:08;;;;;;;8.63;4.20;;;25.20;26.70;;;;;;4992501;28;20019;-84
2023/04/21 06:00:34;;;;;;;8.40;4.05;;;25.40;26.40;;;;;;4961126;28;20038;-84
2023/04/21 06:03:00;;;;;;;11.45;4.15;;;25.60;26.40;;;;;;4972045;28;20095;-90
2023/04/21 06:05:26;;;;;;;9.43;3.97;;;26.30;26.20;;;;;;4974392;28;20034;-85
2023/04/21 06:07:52;;;;;;;9.38;3.85;;;27.10;26.00;;;;;;4986827;28;20396;-86
2023/04/21 06:10:18;;;;;;;10.07;4.50;;;27.70;25.90;;;;;;4990918;28;20030;-86
2023/04/21 06:12:44;;;;;;;16.02;4.80;;;28.20;25.50;;;;;;4974598;28;20444;-85
2023/04/21 06:15:10;;;;;;;11.00;3.00;;;28.70;25.40;;;;;;4988407;28;20352;-85
2023/04/21 06:17:36;;;;;;;11.60;7.43;;;29.10;25.00;;;;;;4974386;28;20050;-86
2023/04/21 06:20:03;;;;;;;8.67;5.00;;;28.40;25.20;;;;;;4948700;28;20060;-86
2023/04/21 06:22:29;;;;;;;6.47;3.00;;;27.60;25.30;;;;;;4984726;28;20041;-85
2023/04/21 06:24:55;;;;;;;7.93;3.13;;;27.50;25.30;;;;;;4987412;28;20018;-87
2023/04/21 06:27:21;;;;;;;10.25;4.63;;;27.30;25.30;;;;;;4971640;28;20050;-88
2023/04/21 06:29:47;;;;;;;15.38;4.20;;;27.90;25.40;;;;;;4991874;28;20074;-86
2023/04/21 06:32:13;;;;;;;7.80;4.10;;;28.00;25.20;;;;;;4966307;29;20042;-85
2023/04/21 06:34:39;;;;;;;4.72;2.67;;;28.20;25.10;;;;;;4952975;28;20035;-85
2023/04/21 06:37:04;;;;;;;5.20;3.30;;;27.90;25.30;;;;;;4960088;28;20070;-82
2023/04/21 06:39:30;;;;;;;5.50;3.70;;;27.00;25.40;;;;;;4964525;28;20027;-83
2023/04/21 06:42:00;;;;;;;5.03;2.20;;;26.90;25.50;;;;;;4967881;28;20048;-82
2023/04/21 06:44:25;;;;;;;8.85;3.47;;;27.60;25.50;;;;;;4961308;28;20045;-84
2023/04/21 06:46:51;;;;;;;11.98;2.92;;;28.00;25.30;;;;;;4954704;28;20032;-79
2023/04/21 06:49:17;;;;;;;8.73;3.60;;;28.10;25.10;;;;;;4960336;28;20067;-80
2023/04/21 06:51:43;;;;;;;7.00;2.50;;;27.90;25.20;;;;;;4955526;28;20027;-80
2023/04/21 06:54:09;;;;;;;3.55;2.13;;;27.10;25.30;;;;;;4946221;29;20023;-79
2023/04/21 06:56:35;;;;;;;8.40;2.58;;;26.70;25.50;;;;;;4955326;28;20066;-81
2023/04/21 06:59:01;;;;;;;5.40;2.57;;;26.90;25.60;;;;;;4951281;28;20032;-78
2023/04/21 07:01:27;;;;;;;5.05;2.63;;;27.50;25.50;;;;;;4955024;28;20043;-79
2023/04/21 07:03:53;;;;;;;7.30;2.40;;;27.90;25.10;;;;;;4947195;29;20043;-77
2023/04/21 07:06:21;;;;;;;10.40;3.73;;;28.20;25.00;;;;;;4966972;28;20027;-77
2023/04/21 07:08:47;;;;;;;8.57;2.97;;;29.40;24.90;;;;;;4946341;28;20050;-77
2023/04/21 07:11:13;;;;;;;4.25;2.50;;;29.20;24.50;;;;;;4973402;28;20022;-78
2023/04/21 07:13:39;;;;;;;6.77;2.83;;;29.90;24.20;;;;;;4991959;28;20029;-78
2023/04/21 07:16:05;;;;;;;4.00;2.23;;;30.50;24.00;;;;;;4990679;28;20014;-78
2023/04/21 07:18:31;;;;;;;14.70;3.33;;;31.00;24.00;;;;;;5005964;28;20097;-80
2023/04/21 07:20:57;;;;;;;4.55;2.15;;;30.60;23.80;;;;;;5002809;28;20026;-80
2023/04/21 07:23:23;;;;;;;2.75;2.08;;;30.60;24.10;;;;;;4986458;28;20031;-80
2023/04/21 07:25:50;;;;;;;4.22;2.17;;;30.90;24.00;;;;;;4988789;28;20026;-81
2023/04/21 07:28:16;;;;;;;5.37;3.03;;;30.60;23.90;;;;;;5005633;28;20086;-81
2023/04/21 07:30:42;;;;;;;9.27;4.20;;;30.00;23.90;;;;;;4974768;28;20031;-80
2023/04/21 07:33:08;;;;;;;9.60;2.80;;;29.00;24.40;;;;;;4981434;28;20073;-83
2023/04/21 07:35:34;;;;;;;5.93;2.13;;;29.10;24.40;;;;;;4977509;28;20023;-81
2023/04/21 07:38:00;;;;;;;7.47;2.73;;;29.70;24.30;;;;;;4987787;28;20062;-82
2023/04/21 07:40:26;;;;;;;9.87;2.63;;;30.50;24.20;;;;;;4988013;28;20021;-79
2023/04/21 07:42:52;;;;;;;5.63;2.43;;;30.60;23.90;;;;;;4988338;28;20038;-78
2023/04/21 07:45:18;;;;;;;6.23;2.40;;;30.90;23.80;;;;;;4984158;28;20027;-79
2023/04/21 07:47:45;;;;;;;7.50;4.47;;;30.90;23.60;;;;;;4966038;28;20050;-78
2023/04/21 07:50:10;;;;;;;;;;;30.90;23.60;;;;;;4981447;28;20113;-80
2023/04/21 07:52:36;;;;;;;7.85;3.00;;;30.70;24.00;;;;;;4965603;28;20405;-80
2023/04/21 07:55:02;;;;;;;7.33;2.50;;;30.80;23.60;;;;;;4997557;28;20027;-78
2023/04/21 07:57:30;;;;;;;8.30;2.95;;;30.20;23.70;;;;;;4992891;28;20037;-80
2023/04/21 07:59:56;;;;;;;6.30;3.15;;;30.50;23.80;;;;;;4980217;28;20019;-80
2023/04/21 08:02:22;;;;;;;17.67;3.23;;;31.40;23.70;;;;;;4970289;28;20094;-80
2023/04/21 08:04:48;;;;;;;10.40;2.70;;;31.40;23.30;;;;;;4967677;28;20070;-79
2023/04/21 08:07:14;;;;;;;5.27;2.10;;;30.30;23.60;;;;;;4983893;28;20066;-80
2023/04/21 08:09:40;;;;;;;8.03;2.80;;;30.30;23.40;;;;;;4987045;28;20114;-81
2023/04/21 08:12:06;;;;;;;5.65;2.70;;;31.20;23.60;;;;;;4982136;28;20109;-80
2023/04/21 08:14:32;;;;;;;5.97;2.30;;;31.50;23.50;;;;;;4978589;28;20026;-79
2023/04/21 08:16:59;;;;;;;8.23;1.90;;;30.70;23.10;;;;;;4978005;28;20261;-79
2023/04/21 08:19:25;;;;;;;9.30;2.25;;;29.90;23.40;;;;;;4992009;28;20034;-79
2023/04/21 08:21:51;;;;;;;10.50;3.07;;;29.90;23.70;;;;;;4980063;28;20038;-78
2023/04/21 08:24:16;;;;;;;9.70;2.83;;;30.10;23.70;;;;;;4983162;28;20075;-78
2023/04/21 08:26:43;;;;;;;7.57;3.13;;;30.30;23.60;;;;;;4975609;28;20035;-78
2023/04/21 08:29:09;;;;;;;8.68;3.35;;;30.60;23.70;;;;;;4976502;28;20019;-78
2023/04/21 08:31:35;;;;;;;6.70;2.40;;;30.70;23.50;;;;;;4984417;28;20023;-78
2023/04/21 08:34:01;;;;;;;4.93;2.00;;;30.40;23.60;;;;;;4979727;28;20073;-81
2023/04/21 08:36:30;;;;;;;4.53;2.53;;;30.90;23.60;;;;;;4982832;28;20324;-79
2023/04/21 08:38:57;;;;;;;10.88;2.53;;;31.80;23.50;;;;;;4984244;28;20690;-79
2023/04/21 08:41:24;;;;;;;4.40;2.97;;;31.70;23.40;;;;;;4984334;28;20047;-78
2023/04/21 08:43:52;;;;;;;4.40;2.40;;;31.40;23.30;;;;;;4979234;28;20047;-78
2023/04/21 08:46:18;;;;;;;5.45;2.85;;;30.70;23.40;;;;;;4989740;28;20041;-78
2023/04/21 08:48:46;;;;;;;5.13;3.00;;;30.40;23.60;;;;;;4983699;28;20046;-80
2023/04/21 08:51:18;;;;;;;6.63;2.20;;;30.10;23.80;;;;;;4986213;28;20034;-81
2023/04/21 08:53:45;;;;;;;10.38;4.47;;;30.70;24.00;;;;;;4989428;28;20047;-79
2023/04/21 08:56:10;;;;;;;;;;;31.70;23.70;;;;;;4967672;28;20082;-79
2023/04/21 08:58:36;;;;;;;8.20;3.97;;;30.70;23.90;;;;;;4976029;28;20434;-80
2023/04/21 09:01:02;;;;;;;7.40;2.63;;;31.00;23.90;;;;;;4982014;28;20035;-77
2023/04/21 09:03:30;;;;;;;4.13;2.37;;;31.20;23.70;;;;;;4979444;28;20097;-79
2023/04/21 09:06:00;;;;;;;15.25;4.25;;;31.70;23.70;;;;;;4988321;28;20034;-78
2023/04/21 09:08:29;;;;;;;3.53;2.28;;;31.80;23.60;;;;;;4963588;28;20030;-78
2023/04/21 09:10:55;;;;;;;3.53;2.20;;;30.80;23.80;;;;;;4999410;28;20018;-78
2023/04/21 09:13:30;;;;;;;;;;;30.70;24.00;;;;;;4996314;28;20026;-79
2023/04/21 09:15:56;;;;;;;6.28;2.45;;;31.00;24.20;;;;;;4980813;28;19914;-80
2023/04/21 09:18:24;;;;;;;5.78;2.85;;;32.00;23.90;;;;;;4966667;28;20033;-79
2023/04/21 09:21:12;;;;;;;7.22;3.42;;;32.10;23.90;;;;;;4971594;28;20027;-81
2023/04/21 09:23:46;;;;;;;13.18;3.60;;;31.80;23.90;;;;;;4957241;28;20055;-82
2023/04/21 09:26:12;;;;;;;15.05;3.28;;;31.50;23.80;;;;;;4968319;28;20035;-81
2023/04/21 09:28:42;;;;;;;8.95;2.67;;;30.70;24.00;;;;;;4990742;28;20027;-81
2023/04/21 09:31:18;;;;;;;6.13;2.85;;;30.50;24.30;;;;;;4981899;28;20038;-80
2023/04/21 09:33:52;;;;;;;4.50;2.10;;;30.50;24.40;;;;;;4975798;28;20023;-78
2023/04/21 09:36:23;;;;;;;7.53;2.13;;;30.90;24.20;;;;;;4965944;28;20038;-78
2023/04/21 09:39:10;;;;;;;6.80;2.20;;;31.30;24.20;;;;;;4986953;28;20034;-78
2023/04/21 09:41:35;;;;;;;;;;;31.30;24.10;;;;;;4980927;28;20053;-78
2023/04/21 09:44:03;;;;;;;4.70;2.50;;;30.70;24.40;;;;;;4958222;28;19937;-79
2023/04/21 09:46:33;;;;;;;3.55;2.50;;;31.00;24.40;;;;;;4988060;28;20039;-79
2023/04/21 09:49:03;;;;;;;5.18;2.45;;;32.00;24.10;;;;;;4975838;28;20057;-79
2023/04/21 09:51:30;;;;;;;6.72;2.70;;;32.80;23.90;;;;;;4967699;28;20031;-79
2023/04/21 09:53:59;;;;;;;16.90;3.20;;;33.70;23.90;;;;;;4983111;28;20058;-78
2023/04/21 09:56:32;;;;;;;3.72;2.38;;;33.50;23.40;;;;;;4948934;28;20424;-79
2023/04/21 09:59:03;;;;;;;5.55;2.20;;;31.10;24.00;;;;;;4969683;28;20027;-78
2023/04/21 10:01:29;;;;;;;2.38;1.60;;;30.30;24.80;;;;;;4972219;28;20038;-79
2023/04/21 10:03:56;;;;;;;12.63;2.80;;;31.00;24.60;;;;;;4980355;28;20102;-78
2023/04/21 10:06:22;;;;;;;3.70;2.58;;;31.40;24.80;;;;;;4964300;28;20035;-79
2023/04/21 10:08:50;;;;;;;6.57;2.35;;;31.90;24.70;;;;;;4978598;28;20031;-78
2023/04/21 10:11:19;;;;;;;3.45;2.30;;;32.20;24.00;;;;;;4979793;28;20030;-79
2023/04/21 10:13:45;;;;;;;10.68;2.50;;;32.00;24.20;;;;;;4981856;28;20022;-78
2023/04/21 10:16:11;;;;;;;8.57;3.17;;;31.00;24.00;;;;;;4988734;28;20046;-78
2023/04/21 10:18:42;;;;;;;4.85;2.45;;;28.80;24.60;;;;;;4968262;28;20046;-79
2023/04/21 10:21:09;;;;;;;6.55;2.38;;;27.30;25.70;;;;;;4987650;28;20059;-79
2023/04/21 10:23:43;;;;;;;11.45;3.67;;;26.30;26.00;;;;;;4980437;28;20031;-79
2023/04/21 10:26:16;;;;;;;4.18;2.50;;;24.90;26.70;;;;;;4985434;28;20142;-79
2023/04/21 10:28:44;;;;;;;6.63;2.03;;;23.50;27.80;;;;;;4988741;28;20022;-79
2023/04/21 10:31:10;;;;;;;;;;;;;;;;;;4973286;28;20050;-80
2023/04/21 10:33:38;;;;;;;5.18;2.00;;;22.50;28.60;;;;;;5000211;28;19913;-80
2023/04/21 10:36:04;;;;;;;5.18;1.90;;;21.10;29.90;;;;;;4971471;28;20026;-80
2023/04/21 10:38:42;;;;;;;4.05;2.50;;;20.80;30.00;;;;;;4985144;28;21469;-80
2023/04/21 10:41:31;;;;;;;7.43;2.65;;;20.60;30.30;;;;;;4997008;28;20038;-79
2023/04/21 10:43:58;;;;;;;3.55;2.47;;;20.30;30.30;;;;;;4985468;28;20027;-80
2023/04/21 10:46:43;;;;;;;5.80;2.20;;;;;;;;;;4985661;28;20086;-79
2023/04/21 10:49:10;;;;;;;2.53;1.83;;;;;;;;;;4992541;28;20045;-80
2023/04/21 10:52:04;;;;;;;8.85;1.65;;;19.90;30.90;;;;;;4991143;28;20026;-79
2023/04/21 10:54:42;;;;;;;2.35;1.75;;;18.60;32.80;;;;;;4978246;28;20037;-78
2023/04/21 10:57:10;;;;;;;4.25;1.60;;;;;;;;;;4962238;28;20082;-80
2023/04/21 10:59:36;;;;;;;7.82;1.95;;;18.30;32.80;;;;;;4988422;28;20027;-80
2023/04/21 11:02:10;;;;;;;4.15;2.35;;;18.40;33.40;;;;;;4991481;28;20042;-79
2023/04/21 11:04:40;;;;;;;5.13;2.10;;;18.50;33.20;;;;;;4987784;28;20070;-80
2023/04/21 11:07:09;;;;;;;4.53;2.17;;;18.40;33.20;;;;;;4990966;28;20106;-80
2023/04/21 11:09:45;;;;;;;2.60;1.63;;;18.30;33.30;;;;;;4988472;28;20022;-82
2023/04/21 11:12:17;;;;;;;5.68;2.10;;;18.10;33.50;;;;;;5003828;28;20023;-81
2023/04/21 11:14:46;;;;;;;5.38;2.15;;;18.00;34.30;;;;;;4983770;28;20353;-81
2023/04/21 11:17:18;;;;;;;4.63;3.83;;;17.90;34.40;;;;;;4979410;28;20034;-80
2023/04/21 11:19:52;;;;;;;3.78;2.20;;;17.80;34.20;;;;;;4979744;28;20030;-80
2023/04/21 11:22:19;;;;;;;7.82;2.10;;;17.70;34.50;;;;;;4981533;28;20035;-79
2023/04/21 11:24:46;;;;;;;;;;;17.60;34.80;;;;;;4985844;28;20588;-78
2023/04/21 11:27:15;;;;;;;4.47;1.87;;;17.60;34.20;;;;;;4981856;28;19965;-80
2023/04/21 11:29:41;;;;;;;3.60;1.55;;;17.70;34.90;;;;;;4996749;28;20258;-79
2023/04/21 11:32:10;;;;;;;7.33;3.00;;;17.80;34.90;;;;;;4985726;28;20082;-80
2023/04/21 11:34:37;;;;;;;11.07;2.05;;;17.90;34.50;;;;;;4977390;28;20263;-79
2023/04/21 11:37:05;;;;;;;4.70;1.75;;;18.00;34.10;;;;;;4985712;28;20034;-83
2023/04/21 11:39:31;;;;;;;4.10;1.63;;;18.10;34.20;;;;;;4988190;28;20029;-82
2023/04/21 11:41:57;;;;;;;5.18;1.70;;;18.20;33.90;;;;;;4987413;28;20034;-82
2023/04/21 11:44:39;;;;;;;4.32;1.55;;;18.30;33.80;;;;;;4989313;28;20029;-78
2023/04/21 11:47:23;;;;;;;5.13;1.90;;;18.40;33.80;;;;;;4967885;28;20102;-79
2023/04/21 11:49:55;;;;;;;5.47;1.45;;;18.20;34.00;;;;;;4979727;28;20023;-77
2023/04/21 11:52:32;;;;;;;10.75;1.67;;;18.10;34.10;;;;;;4977138;28;20052;-80
2023/04/21 11:55:02;;;;;;;3.25;1.60;;;18.10;34.10;;;;;;4981638;28;20122;-78
2023/04/21 11:57:30;;;;;;;10.95;3.88;;;18.00;34.40;;;;;;4983405;28;20034;-78
2023/04/21 12:00:00;;;;;;;3.42;1.58;;;17.90;34.60;;;;;;4975946;28;20542;-79
2023/04/21 12:02:29;;;;;;;7.85;1.73;;;17.70;34.90;;;;;;4985656;28;20034;-79
2023/04/21 12:05:01;;;;;;;5.00;2.58;;;17.70;35.00;;;;;;4981956;28;20559;-80
2023/04/21 12:07:32;;;;;;;5.95;2.20;;;17.80;35.10;;;;;;4981714;28;20033;-80
2023/04/21 12:09:59;;;;;;;6.65;1.92;;;17.80;35.10;;;;;;4984674;28;20048;-81
2023/04/21 12:12:25;;;;;;;5.22;1.73;;;17.90;34.90;;;;;;4984963;28;20085;-81
2023/04/21 12:14:52;;;;;;;3.67;1.85;;;17.80;34.70;;;;;;4984016;28;20054;-80
2023/04/21 12:17:18;;;;;;;3.92;2.05;;;17.80;34.70;;;;;;5000400;28;20092;-79
2023/04/21 12:19:44;;;;;;;6.63;2.58;;;17.90;34.90;;;;;;4999251;28;20018;-81
2023/04/21 12:22:13;;;;;;;4.90;1.70;;;17.70;34.70;;;;;;4982879;28;20039;-83
2023/04/21 12:24:39;;;;;;;3.78;1.60;;;17.60;34.60;;;;;;4990596;28;20038;-82
2023/04/21 12:27:06;;;;;;;3.15;1.83;;;17.40;34.90;;;;;;4983115;28;20058;-82
2023/04/21 12:29:34;;;;;;;6.32;1.63;;;17.40;34.90;;;;;;4988416;28;20033;-83
2023/04/21 12:32:00;;;;;;;3.58;1.70;;;17.50;35.00;;;;;;5004779;28;20030;-81
2023/04/21 12:34:26;;;;;;;4.28;1.70;;;17.60;34.50;;;;;;4988707;28;20023;-81
2023/04/21 12:36:53;;;;;;;2.65;1.70;;;17.50;34.30;;;;;;4999685;28;20046;-79
2023/04/21 12:39:20;;;;;;;3.33;1.75;;;17.40;34.10;;;;;;4984460;28;20026;-78
2023/04/21 12:41:46;;;;;;;5.43;2.00;;;17.30;34.50;;;;;;4981116;28;20070;-77
2023/04/21 12:44:16;;;;;;;3.97;1.80;;;17.10;34.80;;;;;;4982560;28;20026;-80
2023/04/21 12:46:42;;;;;;;3.88;1.50;;;16.90;35.00;;;;;;4976876;28;20053;-78
2023/04/21 12:49:09;;;;;;;9.32;1.90;;;16.70;35.10;;;;;;4986652;28;20027;-78